createdAt,value
2018-02-19T00:00:23.612Z,0
2018-02-19T00:01:04.174Z,0
2018-02-19T00:01:44.677Z,0
2018-02-19T00:02:25.236Z,0
2018-02-19T00:03:05.776Z,0
2018-02-19T00:03:46.252Z,0
2018-02-19T00:04:26.787Z,0
2018-02-19T00:05:07.307Z,0
2018-02-19T00:05:47.815Z,0
2018-02-19T00:06:28.368Z,0
2018-02-19T00:07:08.909Z,0
2018-02-19T00:07:49.425Z,0
2018-02-19T00:08:29.966Z,0
2018-02-19T00:09:10.498Z,0
2018-02-19T00:09:51.046Z,0
2018-02-19T00:10:31.577Z,0
2018-02-19T00:11:12.141Z,0
2018-02-19T00:11:52.764Z,0
2018-02-19T00:12:33.242Z,0
2018-02-19T00:13:13.782Z,0
2018-02-19T00:13:54.276Z,0
2018-02-19T00:14:34.858Z,0
2018-02-19T00:15:15.352Z,0
2018-02-19T00:15:55.839Z,0
2018-02-19T00:16:36.428Z,0
2018-02-19T00:17:16.954Z,0
2018-02-19T00:17:57.443Z,0
2018-02-19T00:18:38.020Z,0
2018-02-19T00:19:18.536Z,0
2018-02-19T00:19:59.080Z,0
2018-02-19T00:20:39.575Z,0
2018-02-19T00:21:20.125Z,0
2018-02-19T00:22:00.698Z,0
2018-02-19T00:22:41.184Z,0
2018-02-19T00:23:21.698Z,0
2018-02-19T00:24:02.234Z,0
2018-02-19T00:24:42.791Z,0
2018-02-19T00:25:23.297Z,0
2018-02-19T00:26:03.847Z,0
2018-02-19T00:26:44.341Z,0
2018-02-19T00:27:24.877Z,0
2018-02-19T00:28:05.378Z,0
2018-02-19T00:28:45.904Z,0
2018-02-19T00:29:26.425Z,0
2018-02-19T00:30:06.945Z,0
2018-02-19T00:30:47.508Z,0
2018-02-19T00:31:27.983Z,0
2018-02-19T00:32:08.547Z,0
2018-02-19T00:32:49.039Z,0
2018-02-19T00:33:29.576Z,0
2018-02-19T00:34:10.086Z,0
2018-02-19T00:34:50.632Z,0
2018-02-19T00:35:31.149Z,0
2018-02-19T00:36:11.668Z,0
2018-02-19T00:36:52.218Z,0
2018-02-19T00:37:32.715Z,0
2018-02-19T00:38:13.230Z,0
2018-02-19T00:38:53.790Z,0
2018-02-19T00:39:34.399Z,0
2018-02-19T00:40:14.831Z,0
2018-02-19T00:40:55.343Z,0
2018-02-19T00:41:35.890Z,0
2018-02-19T00:42:16.451Z,0
2018-02-19T00:42:56.989Z,0
2018-02-19T00:43:37.497Z,0
2018-02-19T00:44:18.031Z,0
2018-02-19T00:44:58.590Z,0
2018-02-19T00:45:39.096Z,0
2018-02-19T00:46:19.634Z,0
2018-02-19T00:47:00.168Z,0
2018-02-19T00:47:40.685Z,0
2018-02-19T00:48:21.210Z,0
2018-02-19T00:49:01.741Z,0
2018-02-19T00:49:42.296Z,0
2018-02-19T00:50:22.811Z,0
2018-02-19T00:51:03.403Z,0
2018-02-19T00:51:43.905Z,0
2018-02-19T00:52:24.400Z,0
2018-02-19T00:53:04.938Z,0
2018-02-19T00:53:45.502Z,0
2018-02-19T00:54:26.020Z,0
2018-02-19T00:55:06.508Z,0
2018-02-19T00:55:47.059Z,0
2018-02-19T00:56:27.568Z,0
2018-02-19T00:57:08.075Z,0
2018-02-19T00:57:48.678Z,0
2018-02-19T00:58:29.211Z,0
2018-02-19T00:59:09.765Z,0
2018-02-19T00:59:50.301Z,0
2018-02-19T01:00:30.816Z,0
2018-02-19T01:01:11.407Z,0
2018-02-19T01:01:51.980Z,0
2018-02-19T01:02:32.518Z,0
2018-02-19T01:03:13.091Z,0
2018-02-19T01:03:53.632Z,0
2018-02-19T01:04:34.188Z,0
2018-02-19T01:05:14.690Z,0
2018-02-19T01:05:55.231Z,0
2018-02-19T01:06:35.802Z,0
2018-02-19T01:07:16.316Z,0
2018-02-19T01:07:56.903Z,0
2018-02-19T01:08:37.435Z,0
2018-02-19T01:09:17.951Z,0
2018-02-19T01:09:58.504Z,0
2018-02-19T01:10:39.220Z,0
2018-02-19T01:11:19.721Z,0
2018-02-19T01:12:00.259Z,0
2018-02-19T01:12:40.825Z,0
2018-02-19T01:13:21.372Z,0
2018-02-19T01:14:01.913Z,0
2018-02-19T01:14:42.487Z,0
2018-02-19T01:15:23.000Z,0
2018-02-19T01:16:03.555Z,0
2018-02-19T01:16:44.103Z,0
2018-02-19T01:17:24.658Z,0
2018-02-19T01:18:05.228Z,0
2018-02-19T01:18:45.759Z,0
2018-02-19T01:19:26.346Z,0
2018-02-19T01:20:06.868Z,0
2018-02-19T01:20:47.414Z,0
2018-02-19T01:21:28.017Z,0
2018-02-19T01:22:08.532Z,0
2018-02-19T01:22:49.104Z,0
2018-02-19T01:23:29.612Z,0
2018-02-19T01:24:10.308Z,0
2018-02-19T01:24:50.847Z,0
2018-02-19T01:25:31.396Z,0
2018-02-19T01:26:11.944Z,0
2018-02-19T01:26:52.483Z,0
2018-02-19T01:27:33.009Z,0
2018-02-19T01:28:13.502Z,0
2018-02-19T01:28:54.053Z,0
2018-02-19T01:29:34.609Z,0
2018-02-19T01:30:15.164Z,0
2018-02-19T01:30:55.690Z,0
2018-02-19T01:31:36.256Z,0
2018-02-19T01:32:16.889Z,0
2018-02-19T01:32:57.421Z,0
2018-02-19T01:33:37.886Z,0
2018-02-19T01:34:18.471Z,0
2018-02-19T01:34:58.925Z,0
2018-02-19T01:35:39.457Z,0
2018-02-19T01:36:20.032Z,0
2018-02-19T01:37:00.598Z,0
2018-02-19T01:37:41.142Z,0
2018-02-19T01:38:21.651Z,0
2018-02-19T01:39:02.209Z,0
2018-02-19T01:39:42.763Z,0
2018-02-19T01:40:23.280Z,0
2018-02-19T01:41:03.824Z,0
2018-02-19T01:41:44.371Z,0
2018-02-19T01:42:24.950Z,0
2018-02-19T01:43:05.525Z,0
2018-02-19T01:43:46.071Z,0
2018-02-19T01:44:26.615Z,0
2018-02-19T01:45:07.134Z,0
2018-02-19T01:45:47.696Z,0
2018-02-19T01:46:28.220Z,0
2018-02-19T01:47:08.750Z,0
2018-02-19T01:47:49.316Z,0
2018-02-19T01:48:29.866Z,0
2018-02-19T01:49:10.371Z,0
2018-02-19T01:49:50.861Z,0
2018-02-19T01:50:31.443Z,0
2018-02-19T01:51:11.936Z,0
2018-02-19T01:51:52.539Z,0
2018-02-19T01:52:33.239Z,0
2018-02-19T01:53:13.941Z,0
2018-02-19T01:53:54.486Z,0
2018-02-19T01:54:35.036Z,0
2018-02-19T01:55:15.580Z,0
2018-02-19T01:55:56.138Z,0
2018-02-19T01:56:36.659Z,0
2018-02-19T01:57:17.196Z,0
2018-02-19T01:57:57.759Z,0
2018-02-19T01:58:38.228Z,0
2018-02-19T01:59:18.761Z,0
2018-02-19T02:00:00.255Z,0
2018-02-19T02:00:40.705Z,0
2018-02-19T02:01:21.093Z,0
2018-02-19T02:02:01.731Z,0
2018-02-19T02:02:42.339Z,0
2018-02-19T02:03:22.902Z,0
2018-02-19T02:04:03.408Z,0
2018-02-19T02:04:43.946Z,0
2018-02-19T02:05:24.663Z,0
2018-02-19T02:06:05.150Z,0
2018-02-19T02:06:45.713Z,0
2018-02-19T02:07:26.249Z,0
2018-02-19T02:08:06.836Z,0
2018-02-19T02:08:47.388Z,0
2018-02-19T02:09:27.902Z,0
2018-02-19T02:10:08.470Z,0
2018-02-19T02:10:48.997Z,0
2018-02-19T02:11:29.533Z,0
2018-02-19T02:12:10.071Z,0
2018-02-19T02:12:50.977Z,0
2018-02-19T02:13:31.487Z,0
2018-02-19T02:14:12.222Z,0
2018-02-19T02:14:52.904Z,0
2018-02-19T02:15:33.659Z,0
2018-02-19T02:16:14.139Z,0
2018-02-19T02:16:54.683Z,0
2018-02-19T02:17:35.230Z,0
2018-02-19T02:18:15.806Z,0
2018-02-19T02:18:56.644Z,0
2018-02-19T02:19:37.195Z,0
2018-02-19T02:20:17.915Z,0
2018-02-19T02:20:58.374Z,0
2018-02-19T02:21:38.963Z,0
2018-02-19T02:22:19.587Z,0
2018-02-19T02:23:00.151Z,0
2018-02-19T02:23:40.844Z,0
2018-02-19T02:24:21.978Z,0
2018-02-19T02:25:02.592Z,0
2018-02-19T02:25:43.370Z,0
2018-02-19T02:26:23.979Z,0
2018-02-19T02:27:04.569Z,0
2018-02-19T02:27:45.089Z,0
2018-02-19T02:28:25.653Z,0
2018-02-19T02:29:06.173Z,0
2018-02-19T02:29:46.985Z,0
2018-02-19T02:30:27.530Z,0
2018-02-19T02:31:08.527Z,0
2018-02-19T02:31:49.057Z,0
2018-02-19T02:32:29.731Z,0
2018-02-19T02:33:10.205Z,0
2018-02-19T02:33:50.744Z,0
2018-02-19T02:34:31.256Z,0
2018-02-19T02:35:11.792Z,0
2018-02-19T02:35:52.618Z,0
2018-02-19T02:36:33.231Z,0
2018-02-19T02:37:13.869Z,0
2018-02-19T02:37:54.350Z,0
2018-02-19T02:38:34.857Z,0
2018-02-19T02:39:15.545Z,0
2018-02-19T02:39:56.354Z,0
2018-02-19T02:40:36.886Z,0
2018-02-19T02:41:17.545Z,0
2018-02-19T02:41:57.961Z,0
2018-02-19T02:42:38.545Z,0
2018-02-19T02:43:19.029Z,0
2018-02-19T02:43:59.786Z,0
2018-02-19T02:44:40.094Z,0
2018-02-19T02:45:20.626Z,0
2018-02-19T02:46:01.182Z,0
2018-02-19T02:46:41.816Z,0
2018-02-19T02:47:22.633Z,0
2018-02-19T02:48:03.174Z,0
2018-02-19T02:48:43.720Z,0
2018-02-19T02:49:24.377Z,0
2018-02-19T02:50:04.875Z,0
2018-02-19T02:50:45.371Z,0
2018-02-19T02:51:26.062Z,0
2018-02-19T02:52:06.592Z,0
2018-02-19T02:52:47.205Z,0
2018-02-19T02:53:27.775Z,0
2018-02-19T02:54:08.310Z,0
2018-02-19T02:54:48.871Z,0
2018-02-19T02:55:29.743Z,0
2018-02-19T02:56:10.200Z,0
2018-02-19T02:56:50.786Z,0
2018-02-19T02:57:31.292Z,0
2018-02-19T02:58:11.927Z,0
2018-02-19T02:58:52.511Z,0
2018-02-19T02:59:33.042Z,0
2018-02-19T03:00:13.564Z,0
2018-02-19T03:00:54.162Z,0
2018-02-19T03:01:34.742Z,0
2018-02-19T03:02:15.281Z,0
2018-02-19T03:02:55.869Z,0
2018-02-19T03:03:36.410Z,0
2018-02-19T03:04:17.074Z,0
2018-02-19T03:04:57.686Z,0
2018-02-19T03:05:38.306Z,0
2018-02-19T03:06:18.891Z,0
2018-02-19T03:06:59.703Z,0
2018-02-19T03:07:40.040Z,0
2018-02-19T03:08:20.526Z,0
2018-02-19T03:09:01.133Z,0
2018-02-19T03:09:41.795Z,0
2018-02-19T03:10:22.189Z,0
2018-02-19T03:11:02.779Z,0
2018-02-19T03:11:43.336Z,0
2018-02-19T03:12:23.913Z,0
2018-02-19T03:13:04.417Z,0
2018-02-19T03:13:44.993Z,0
2018-02-19T03:14:26.178Z,0
2018-02-19T03:15:06.681Z,0
2018-02-19T03:15:47.211Z,0
2018-02-19T03:16:27.905Z,0
2018-02-19T03:17:08.497Z,0
2018-02-19T03:17:49.063Z,0
2018-02-19T03:18:29.618Z,0
2018-02-19T03:19:10.141Z,0
2018-02-19T03:19:50.693Z,0
2018-02-19T03:20:31.250Z,0
2018-02-19T03:21:11.917Z,0
2018-02-19T03:21:52.441Z,0
2018-02-19T03:22:32.973Z,0
2018-02-19T03:23:14.137Z,0
2018-02-19T03:23:54.700Z,0
2018-02-19T03:24:35.355Z,0
2018-02-19T03:25:15.836Z,0
2018-02-19T03:25:56.426Z,0
2018-02-19T03:26:36.993Z,0
2018-02-19T03:27:17.508Z,0
2018-02-19T03:27:58.053Z,0
2018-02-19T03:28:38.614Z,0
2018-02-19T03:29:19.078Z,0
2018-02-19T03:29:59.650Z,0
2018-02-19T03:30:40.222Z,0
2018-02-19T03:31:20.731Z,0
2018-02-19T03:32:01.286Z,0
2018-02-19T03:32:42.000Z,0
2018-02-19T03:33:23.964Z,0
2018-02-19T03:34:04.505Z,0
2018-02-19T03:34:45.024Z,0
2018-02-19T03:35:25.809Z,0
2018-02-19T03:36:06.306Z,0
2018-02-19T03:36:47.297Z,0
2018-02-19T03:37:27.636Z,0
2018-02-19T03:38:08.254Z,0
2018-02-19T03:38:48.772Z,0
2018-02-19T03:39:29.350Z,0
2018-02-19T03:40:09.866Z,0
2018-02-19T03:40:50.426Z,0
2018-02-19T03:41:30.927Z,0
2018-02-19T03:42:11.831Z,0
2018-02-19T03:42:52.423Z,0
2018-02-19T03:43:33.176Z,0
2018-02-19T03:44:13.858Z,0
2018-02-19T03:44:54.340Z,0
2018-02-19T03:45:34.871Z,0
2018-02-19T03:46:15.428Z,0
2018-02-19T03:46:56.531Z,0
2018-02-19T03:47:38.201Z,0
2018-02-19T03:48:18.380Z,0
2018-02-19T03:48:58.736Z,0
2018-02-19T03:49:39.318Z,0
2018-02-19T03:50:19.813Z,0
2018-02-19T03:51:00.354Z,0
2018-02-19T03:51:41.005Z,0
2018-02-19T03:52:21.619Z,0
2018-02-19T03:53:02.304Z,0
2018-02-19T03:53:42.928Z,0
2018-02-19T03:54:23.667Z,0
2018-02-19T03:55:04.303Z,0
2018-02-19T03:55:44.881Z,0
2018-02-19T03:56:25.421Z,0
2018-02-19T03:57:06.608Z,0
2018-02-19T03:57:47.200Z,0
2018-02-19T03:58:27.805Z,0
2018-02-19T03:59:08.284Z,0
2018-02-19T03:59:48.822Z,0
2018-02-19T04:00:29.325Z,0
2018-02-19T04:01:09.844Z,0
2018-02-19T04:01:50.366Z,0
2018-02-19T04:02:32.307Z,0
2018-02-19T04:03:12.859Z,0
2018-02-19T04:03:53.370Z,0
2018-02-19T04:04:33.927Z,0
2018-02-19T04:05:14.468Z,0
2018-02-19T04:05:54.998Z,0
2018-02-19T04:06:35.553Z,0
2018-02-19T04:07:16.089Z,0
2018-02-19T04:07:56.610Z,0
2018-02-19T04:08:37.220Z,0
2018-02-19T04:09:17.678Z,0
2018-02-19T04:09:58.243Z,0
2018-02-19T04:10:38.821Z,0
2018-02-19T04:11:19.346Z,0
2018-02-19T04:11:59.917Z,0
2018-02-19T04:12:40.437Z,0
2018-02-19T04:13:20.962Z,0
2018-02-19T04:14:01.509Z,0
2018-02-19T04:14:42.124Z,0
2018-02-19T04:15:22.790Z,0
2018-02-19T04:16:03.343Z,0
2018-02-19T04:16:43.829Z,0
2018-02-19T04:17:24.387Z,0
2018-02-19T04:18:04.872Z,0
2018-02-19T04:18:45.446Z,0
2018-02-19T04:19:26.033Z,0
2018-02-19T04:20:06.566Z,0
2018-02-19T04:20:47.062Z,0
2018-02-19T04:21:27.594Z,0
2018-02-19T04:22:08.197Z,0
2018-02-19T04:22:48.698Z,0
2018-02-19T04:23:29.213Z,0
2018-02-19T04:24:09.715Z,0
2018-02-19T04:24:50.262Z,0
2018-02-19T04:25:30.790Z,0
2018-02-19T04:26:11.356Z,0
2018-02-19T04:26:51.895Z,0
2018-02-19T04:27:32.385Z,0
2018-02-19T04:28:12.903Z,0
2018-02-19T04:28:53.483Z,0
2018-02-19T04:29:34.092Z,0
2018-02-19T04:30:14.655Z,0
2018-02-19T04:30:55.211Z,0
2018-02-19T04:31:35.719Z,0
2018-02-19T04:32:16.324Z,0
2018-02-19T04:32:56.879Z,0
2018-02-19T04:33:37.393Z,0
2018-02-19T04:34:17.979Z,0
2018-02-19T04:34:58.498Z,0
2018-02-19T04:35:39.052Z,0
2018-02-19T04:36:19.584Z,0
2018-02-19T04:37:00.111Z,0
2018-02-19T04:37:40.630Z,0
2018-02-19T04:38:21.173Z,0
2018-02-19T04:39:01.705Z,0
2018-02-19T04:39:42.255Z,0
2018-02-19T04:40:22.796Z,0
2018-02-19T04:41:03.297Z,0
2018-02-19T04:41:43.854Z,0
2018-02-19T04:42:24.423Z,0
2018-02-19T04:43:04.951Z,0
2018-02-19T04:43:45.483Z,0
2018-02-19T04:44:26.004Z,0
2018-02-19T04:45:06.581Z,0
2018-02-19T04:45:47.046Z,0
2018-02-19T04:46:27.604Z,0
2018-02-19T04:47:08.132Z,0
2018-02-19T04:47:48.644Z,0
2018-02-19T04:48:29.173Z,0
2018-02-19T04:49:09.726Z,0
2018-02-19T04:49:50.261Z,0
2018-02-19T04:50:30.821Z,0
2018-02-19T04:51:11.371Z,0
2018-02-19T04:51:51.911Z,0
2018-02-19T04:52:32.422Z,0
2018-02-19T04:53:12.931Z,0
2018-02-19T04:53:53.489Z,0
2018-02-19T04:54:33.990Z,0
2018-02-19T04:55:14.492Z,0
2018-02-19T04:55:55.084Z,0
2018-02-19T04:56:35.553Z,0
2018-02-19T04:57:16.133Z,0
2018-02-19T04:57:56.656Z,0
2018-02-19T04:58:37.216Z,0
2018-02-19T04:59:17.701Z,0
2018-02-19T04:59:58.208Z,0
2018-02-19T05:00:38.815Z,0
2018-02-19T05:01:19.332Z,0
2018-02-19T05:01:59.979Z,0
2018-02-19T05:02:40.570Z,0
2018-02-19T05:03:21.062Z,0
2018-02-19T05:04:01.609Z,0
2018-02-19T05:04:42.208Z,0
2018-02-19T05:05:22.755Z,0
2018-02-19T05:06:03.324Z,0
2018-02-19T05:06:43.826Z,0
2018-02-19T05:07:24.389Z,0
2018-02-19T05:08:04.933Z,0
2018-02-19T05:08:45.454Z,0
2018-02-19T05:09:25.954Z,0
2018-02-19T05:10:06.484Z,0
2018-02-19T05:10:47.011Z,0
2018-02-19T05:11:27.560Z,0
2018-02-19T05:12:08.116Z,0
2018-02-19T05:12:48.642Z,0
2018-02-19T05:13:29.173Z,0
2018-02-19T05:14:09.716Z,0
2018-02-19T05:14:50.267Z,0
2018-02-19T05:15:30.714Z,0
2018-02-19T05:16:11.305Z,0
2018-02-19T05:16:51.786Z,0
2018-02-19T05:17:32.356Z,0
2018-02-19T05:18:12.865Z,0
2018-02-19T05:18:53.388Z,0
2018-02-19T05:19:33.922Z,0
2018-02-19T05:20:14.450Z,0
2018-02-19T05:20:54.968Z,0
2018-02-19T05:21:35.554Z,0
2018-02-19T05:22:16.083Z,0
2018-02-19T05:22:56.683Z,0
2018-02-19T05:23:37.196Z,0
2018-02-19T05:24:17.763Z,0
2018-02-19T05:24:58.310Z,0
2018-02-19T05:25:38.843Z,0
2018-02-19T05:26:19.396Z,0
2018-02-19T05:26:59.976Z,0
2018-02-19T05:27:40.521Z,0
2018-02-19T05:28:21.130Z,0
2018-02-19T05:29:01.684Z,0
2018-02-19T05:29:42.245Z,0
2018-02-19T05:30:22.805Z,0
2018-02-19T05:31:03.365Z,0
2018-02-19T05:31:43.929Z,0
2018-02-19T05:32:24.466Z,0
2018-02-19T05:33:05.034Z,0
2018-02-19T05:33:45.585Z,0
2018-02-19T05:34:26.131Z,0
2018-02-19T05:35:06.679Z,0
2018-02-19T05:35:47.227Z,0
2018-02-19T05:36:27.788Z,0
2018-02-19T05:37:08.343Z,0
2018-02-19T05:37:48.927Z,0
2018-02-19T05:38:29.478Z,0
2018-02-19T05:39:10.045Z,0
2018-02-19T05:39:50.608Z,0
2018-02-19T05:40:31.172Z,0
2018-02-19T05:41:11.701Z,0
2018-02-19T05:41:52.270Z,0
2018-02-19T05:42:32.822Z,0
2018-02-19T05:43:13.379Z,0
2018-02-19T05:43:53.941Z,0
2018-02-19T05:44:35.342Z,0
2018-02-19T05:45:15.909Z,0
2018-02-19T05:45:56.484Z,0
2018-02-19T05:46:37.035Z,0
2018-02-19T05:47:17.605Z,0
2018-02-19T05:47:58.163Z,0
2018-02-19T05:48:38.709Z,0
2018-02-19T05:49:19.266Z,0
2018-02-19T05:49:59.920Z,0
2018-02-19T05:50:40.359Z,0
2018-02-19T05:51:20.918Z,0
2018-02-19T05:52:02.270Z,0
2018-02-19T05:52:42.062Z,0
2018-02-19T05:53:22.625Z,0
2018-02-19T05:54:03.171Z,0
2018-02-19T05:54:43.872Z,0
2018-02-19T05:55:24.449Z,0
2018-02-19T05:56:04.989Z,0
2018-02-19T05:56:45.552Z,0
2018-02-19T05:57:26.195Z,0
2018-02-19T05:58:06.684Z,0
2018-02-19T05:58:47.245Z,0
2018-02-19T05:59:27.812Z,0
2018-02-19T06:00:08.381Z,0
2018-02-19T06:00:48.975Z,0
2018-02-19T06:01:29.546Z,0
2018-02-19T06:02:10.127Z,0
2018-02-19T06:02:50.689Z,0
2018-02-19T06:03:31.249Z,0
2018-02-19T06:04:11.815Z,0
2018-02-19T06:04:52.344Z,0
2018-02-19T06:05:32.898Z,0
2018-02-19T06:06:13.451Z,0
2018-02-19T06:06:54.024Z,0
2018-02-19T06:07:34.569Z,0
2018-02-19T06:08:15.146Z,0
2018-02-19T06:08:55.723Z,0
2018-02-19T06:09:36.493Z,0
2018-02-19T06:10:17.039Z,0
2018-02-19T06:10:57.604Z,0
2018-02-19T06:11:38.338Z,0
2018-02-19T06:12:18.874Z,0
2018-02-19T06:12:59.431Z,0
2018-02-19T06:13:40.000Z,0
2018-02-19T06:14:20.585Z,0
2018-02-19T06:15:01.154Z,0
2018-02-19T06:15:41.692Z,0
2018-02-19T06:16:22.310Z,0
2018-02-19T06:17:02.939Z,0
2018-02-19T06:17:43.426Z,0
2018-02-19T06:18:23.994Z,0
2018-02-19T06:19:04.550Z,0
2018-02-19T06:19:45.117Z,0
2018-02-19T06:20:25.674Z,0
2018-02-19T06:21:06.670Z,0
2018-02-19T06:21:47.171Z,0
2018-02-19T06:22:27.742Z,0
2018-02-19T06:23:08.281Z,0
2018-02-19T06:23:48.890Z,0
2018-02-19T06:24:29.379Z,0
2018-02-19T06:25:09.936Z,0
2018-02-19T06:25:50.481Z,0
2018-02-19T06:26:31.048Z,0
2018-02-19T06:27:11.691Z,0
2018-02-19T06:27:52.286Z,0
2018-02-19T06:28:32.862Z,0
2018-02-19T06:29:13.553Z,0
2018-02-19T06:29:54.055Z,0
2018-02-19T06:30:34.702Z,0
2018-02-19T06:31:15.167Z,0
2018-02-19T06:31:55.689Z,0
2018-02-19T06:32:36.230Z,0
2018-02-19T06:33:16.798Z,0
2018-02-19T06:33:57.425Z,0
2018-02-19T06:34:37.912Z,0
2018-02-19T06:35:18.459Z,0
2018-02-19T06:35:59.019Z,0
2018-02-19T06:36:39.592Z,0
2018-02-19T06:37:20.132Z,0
2018-02-19T06:38:00.798Z,0
2018-02-19T06:38:41.275Z,0
2018-02-19T06:39:21.833Z,0
2018-02-19T06:40:02.395Z,0
2018-02-19T06:40:42.943Z,0
2018-02-19T06:41:23.500Z,0
2018-02-19T06:42:04.150Z,0
2018-02-19T06:42:44.689Z,0
2018-02-19T06:43:25.267Z,0
2018-02-19T06:44:05.810Z,0
2018-02-19T06:44:46.356Z,0
2018-02-19T06:45:26.905Z,0
2018-02-19T06:46:07.523Z,0
2018-02-19T06:46:48.087Z,0
2018-02-19T06:47:28.640Z,0
2018-02-19T06:48:09.183Z,0
2018-02-19T06:48:49.863Z,0
2018-02-19T06:49:30.416Z,0
2018-02-19T06:50:10.982Z,0
2018-02-19T06:50:51.557Z,0
2018-02-19T06:51:32.105Z,0
2018-02-19T06:52:12.648Z,0
2018-02-19T06:52:53.214Z,0
2018-02-19T06:53:33.772Z,5
2018-02-19T06:54:14.323Z,5
2018-02-19T06:54:54.901Z,5
2018-02-19T06:55:35.451Z,5
2018-02-19T06:56:15.985Z,5
2018-02-19T06:56:56.541Z,5
2018-02-19T06:57:37.119Z,5
2018-02-19T06:58:17.674Z,5
2018-02-19T06:58:58.226Z,5
2018-02-19T06:59:38.795Z,5
2018-02-19T07:00:19.365Z,5
2018-02-19T07:01:00.189Z,5
2018-02-19T07:01:40.751Z,5
2018-02-19T07:02:21.307Z,5
2018-02-19T07:03:01.882Z,5
2018-02-19T07:03:42.455Z,5
2018-02-19T07:04:23.014Z,5
2018-02-19T07:05:03.901Z,5
2018-02-19T07:05:44.704Z,5
2018-02-19T07:06:25.258Z,5
2018-02-19T07:07:05.818Z,5
2018-02-19T07:07:46.619Z,5
2018-02-19T07:08:27.167Z,5
2018-02-19T07:09:07.738Z,5
2018-02-19T07:09:48.307Z,5
2018-02-19T07:10:28.866Z,5
2018-02-19T07:11:09.407Z,5
2018-02-19T07:11:49.999Z,5
2018-02-19T07:12:30.593Z,5
2018-02-19T07:13:11.153Z,5
2018-02-19T07:13:51.737Z,5
2018-02-19T07:14:32.284Z,5
2018-02-19T07:15:12.842Z,5
2018-02-19T07:15:53.405Z,5
2018-02-19T07:16:33.963Z,5
2018-02-19T07:17:14.499Z,5
2018-02-19T07:17:55.084Z,5
2018-02-19T07:18:36.564Z,5
2018-02-19T07:19:17.133Z,5
2018-02-19T07:19:57.681Z,5
2018-02-19T07:20:38.223Z,10
2018-02-19T07:21:18.791Z,10
2018-02-19T07:21:59.341Z,10
2018-02-19T07:22:40.190Z,10
2018-02-19T07:23:20.765Z,10
2018-02-19T07:24:01.387Z,10
2018-02-19T07:24:41.944Z,10
2018-02-19T07:25:22.511Z,10
2018-02-19T07:26:03.075Z,15
2018-02-19T07:26:43.631Z,15
2018-02-19T07:27:24.184Z,15
2018-02-19T07:28:04.769Z,15
2018-02-19T07:28:45.364Z,15
2018-02-19T07:29:25.950Z,15
2018-02-19T07:30:06.561Z,15
2018-02-19T07:30:47.115Z,20
2018-02-19T07:31:27.672Z,20
2018-02-19T07:32:08.269Z,20
2018-02-19T07:32:48.832Z,20
2018-02-19T07:33:29.402Z,20
2018-02-19T07:34:10.346Z,20
2018-02-19T07:34:50.919Z,20
2018-02-19T07:35:31.517Z,20
2018-02-19T07:36:12.088Z,20
2018-02-19T07:36:52.680Z,20
2018-02-19T07:37:33.250Z,20
2018-02-19T07:38:13.799Z,20
2018-02-19T07:38:54.351Z,20
2018-02-19T07:39:34.919Z,20
2018-02-19T07:40:15.496Z,20
2018-02-19T07:40:56.058Z,20
2018-02-19T07:41:36.674Z,20
2018-02-19T07:42:17.319Z,20
2018-02-19T07:42:58.009Z,25
2018-02-19T07:43:38.708Z,25
2018-02-19T07:44:19.318Z,25
2018-02-19T07:45:00.033Z,25
2018-02-19T07:45:40.620Z,25
2018-02-19T07:46:21.227Z,25
2018-02-19T07:47:01.787Z,25
2018-02-19T07:47:42.362Z,25
2018-02-19T07:48:22.917Z,25
2018-02-19T07:49:03.471Z,25
2018-02-19T07:49:44.024Z,25
2018-02-19T07:50:24.589Z,25
2018-02-19T07:51:05.162Z,30
2018-02-19T07:51:45.741Z,30
2018-02-19T07:52:26.307Z,30
2018-02-19T07:53:06.834Z,30
2018-02-19T07:53:47.362Z,30
2018-02-19T07:54:27.922Z,30
2018-02-19T07:55:08.390Z,30
2018-02-19T07:55:48.948Z,30
2018-02-19T07:56:29.526Z,30
2018-02-19T07:57:10.118Z,30
2018-02-19T07:57:50.679Z,30
2018-02-19T07:58:31.235Z,30
2018-02-19T07:59:11.991Z,30
2018-02-19T07:59:52.635Z,35
2018-02-19T08:00:33.189Z,30
2018-02-19T08:01:13.704Z,30
2018-02-19T08:01:54.257Z,30
2018-02-19T08:02:34.819Z,30
2018-02-19T08:03:15.446Z,25
2018-02-19T08:03:55.938Z,25
2018-02-19T08:04:36.496Z,25
2018-02-19T08:05:17.065Z,25
2018-02-19T08:05:57.637Z,20
2018-02-19T08:06:38.178Z,20
2018-02-19T08:07:18.688Z,20
2018-02-19T08:07:59.228Z,25
2018-02-19T08:08:39.768Z,25
2018-02-19T08:09:20.570Z,25
2018-02-19T08:10:01.119Z,25
2018-02-19T08:10:41.717Z,25
2018-02-19T08:11:22.270Z,30
2018-02-19T08:12:02.826Z,30
2018-02-19T08:12:43.385Z,30
2018-02-19T08:13:23.959Z,35
2018-02-19T08:14:04.523Z,35
2018-02-19T08:14:45.074Z,35
2018-02-19T08:15:25.621Z,35
2018-02-19T08:16:06.207Z,35
2018-02-19T08:16:46.757Z,30
2018-02-19T08:17:27.314Z,30
2018-02-19T08:18:07.864Z,30
2018-02-19T08:18:48.545Z,30
2018-02-19T08:19:29.110Z,30
2018-02-19T08:20:09.661Z,35
2018-02-19T08:20:50.346Z,35
2018-02-19T08:21:30.900Z,35
2018-02-19T08:22:11.554Z,40
2018-02-19T08:22:52.125Z,35
2018-02-19T08:23:32.679Z,35
2018-02-19T08:24:13.257Z,35
2018-02-19T08:24:53.803Z,35
2018-02-19T08:25:34.379Z,35
2018-02-19T08:26:14.957Z,35
2018-02-19T08:26:55.502Z,35
2018-02-19T08:27:36.047Z,30
2018-02-19T08:28:16.604Z,30
2018-02-19T08:28:57.152Z,35
2018-02-19T08:29:37.691Z,35
2018-02-19T08:30:18.258Z,35
2018-02-19T08:30:58.872Z,35
2018-02-19T08:31:39.441Z,35
2018-02-19T08:32:20.042Z,35
2018-02-19T08:33:00.588Z,35
2018-02-19T08:33:41.190Z,35
2018-02-19T08:34:21.714Z,35
2018-02-19T08:35:02.278Z,35
2018-02-19T08:35:42.840Z,35
2018-02-19T08:36:23.416Z,35
2018-02-19T08:37:03.954Z,35
2018-02-19T08:37:44.545Z,40
2018-02-19T08:38:25.106Z,40
2018-02-19T08:39:05.706Z,40
2018-02-19T08:39:46.278Z,35
2018-02-19T08:40:26.940Z,35
2018-02-19T08:41:07.579Z,35
2018-02-19T08:41:48.144Z,35
2018-02-19T08:42:28.697Z,35
2018-02-19T08:43:09.216Z,35
2018-02-19T08:43:49.904Z,35
2018-02-19T08:44:30.462Z,35
2018-02-19T08:45:11.030Z,35
2018-02-19T08:45:51.690Z,35
2018-02-19T08:46:32.258Z,40
2018-02-19T08:47:12.850Z,40
2018-02-19T08:47:53.421Z,40
2018-02-19T08:48:33.989Z,40
2018-02-19T08:49:14.576Z,40
2018-02-19T08:49:55.140Z,40
2018-02-19T08:50:35.695Z,45
2018-02-19T08:51:16.283Z,45
2018-02-19T08:51:56.841Z,45
2018-02-19T08:52:37.392Z,45
2018-02-19T08:53:17.991Z,45
2018-02-19T08:53:58.556Z,45
2018-02-19T08:54:39.104Z,50
2018-02-19T08:55:19.666Z,50
2018-02-19T08:56:00.241Z,50
2018-02-19T08:56:40.809Z,50
2018-02-19T08:57:21.399Z,50
2018-02-19T08:58:01.954Z,50
2018-02-19T08:58:42.563Z,50
2018-02-19T08:59:23.080Z,50
2018-02-19T09:00:03.685Z,50
2018-02-19T09:00:44.283Z,55
2018-02-19T09:01:24.831Z,55
2018-02-19T09:02:05.509Z,55
2018-02-19T09:02:46.023Z,55
2018-02-19T09:03:26.620Z,55
2018-02-19T09:04:07.192Z,55
2018-02-19T09:04:47.781Z,55
2018-02-19T09:05:28.323Z,55
2018-02-19T09:06:08.924Z,55
2018-02-19T09:06:49.497Z,55
2018-02-19T09:07:30.067Z,60
2018-02-19T09:08:10.644Z,55
2018-02-19T09:08:51.195Z,55
2018-02-19T09:09:31.844Z,55
2018-02-19T09:10:12.391Z,60
2018-02-19T09:10:52.959Z,60
2018-02-19T09:11:33.522Z,60
2018-02-19T09:12:14.297Z,65
2018-02-19T09:12:54.886Z,65
2018-02-19T09:13:35.441Z,65
2018-02-19T09:14:16.256Z,65
2018-02-19T09:14:56.840Z,65
2018-02-19T09:15:37.377Z,65
2018-02-19T09:16:17.937Z,65
2018-02-19T09:16:58.525Z,65
2018-02-19T09:17:39.092Z,65
2018-02-19T09:18:19.703Z,65
2018-02-19T09:19:00.295Z,65
2018-02-19T09:19:40.843Z,65
2018-02-19T09:20:21.446Z,65
2018-02-19T09:21:02.002Z,65
2018-02-19T09:21:42.572Z,65
2018-02-19T09:22:23.155Z,60
2018-02-19T09:23:03.722Z,60
2018-02-19T09:23:44.280Z,60
2018-02-19T09:24:24.846Z,55
2018-02-19T09:25:05.473Z,55
2018-02-19T09:25:46.140Z,50
2018-02-19T09:26:26.704Z,50
2018-02-19T09:27:07.280Z,50
2018-02-19T09:27:47.842Z,50
2018-02-19T09:28:28.412Z,50
2018-02-19T09:29:08.981Z,50
2018-02-19T09:29:49.542Z,50
2018-02-19T09:30:30.101Z,50
2018-02-19T09:31:10.798Z,50
2018-02-19T09:31:51.380Z,55
2018-02-19T09:32:32.012Z,55
2018-02-19T09:33:12.537Z,55
2018-02-19T09:33:53.109Z,55
2018-02-19T09:34:33.651Z,55
2018-02-19T09:35:14.369Z,55
2018-02-19T09:35:54.869Z,60
2018-02-19T09:36:35.402Z,60
2018-02-19T09:37:15.990Z,60
2018-02-19T09:37:56.533Z,60
2018-02-19T09:38:37.017Z,60
2018-02-19T09:39:17.545Z,60
2018-02-19T09:39:58.141Z,60
2018-02-19T09:40:38.610Z,65
2018-02-19T09:41:19.158Z,65
2018-02-19T09:41:59.777Z,65
2018-02-19T09:42:40.288Z,65
2018-02-19T09:43:21.058Z,65
2018-02-19T09:44:01.586Z,65
2018-02-19T09:44:42.218Z,65
2018-02-19T09:45:22.771Z,65
2018-02-19T09:46:03.275Z,70
2018-02-19T09:46:43.837Z,65
2018-02-19T09:47:24.524Z,70
2018-02-19T09:48:05.067Z,70
2018-02-19T09:48:45.638Z,70
2018-02-19T09:49:26.313Z,70
2018-02-19T09:50:06.851Z,65
2018-02-19T09:50:47.472Z,60
2018-02-19T09:51:27.968Z,60
2018-02-19T09:52:08.533Z,65
2018-02-19T09:52:49.053Z,70
2018-02-19T09:53:29.608Z,70
2018-02-19T09:54:10.307Z,75